createdAt,value
2019-04-01T00:00:43.832Z,59.80
2019-04-01T00:03:15.754Z,60.09
2019-04-01T00:05:50.134Z,60.11
2019-04-01T00:08:21.701Z,60.48
2019-04-01T00:10:55.750Z,60.22
2019-04-01T00:13:28.767Z,61.03
2019-04-01T00:16:00.928Z,61.00
2019-04-01T00:18:33.716Z,60.80
2019-04-01T00:21:05.976Z,60.71
2019-04-01T00:23:38.057Z,60.44
2019-04-01T00:26:10.059Z,61.06
2019-04-01T00:28:42.871Z,60.92
2019-04-01T00:31:16.227Z,60.55
2019-04-01T00:33:48.906Z,60.28
2019-04-01T00:36:21.730Z,60.48
2019-04-01T00:38:52.904Z,60.40
2019-04-01T00:41:26.690Z,61.12
2019-04-01T00:47:00.630Z,61.28
2019-04-01T00:49:33.858Z,61.41
2019-04-01T00:52:08.093Z,61.58
2019-04-01T00:54:40.061Z,61.37
2019-04-01T00:57:12.968Z,61.67
2019-04-01T00:59:46.003Z,62.04
2019-04-01T01:02:19.148Z,62.43
2019-04-01T01:04:52.162Z,62.40
2019-04-01T01:07:25.145Z,62.46
2019-04-01T01:09:57.323Z,62.24
2019-04-01T01:12:29.384Z,62.31
2019-04-01T01:15:01.120Z,62.39
2019-04-01T01:17:34.178Z,62.85
2019-04-01T01:20:07.570Z,63.22
2019-04-01T01:22:40.316Z,63.51
2019-04-01T01:25:11.765Z,63.58
2019-04-01T01:27:46.816Z,63.09
2019-04-01T01:30:19.369Z,63.34
2019-04-01T01:32:51.998Z,64.17
2019-04-01T01:35:23.226Z,63.72
2019-04-01T01:37:55.285Z,63.86
2019-04-01T01:40:28.273Z,63.84
2019-04-01T01:43:01.250Z,64.35
2019-04-01T01:45:34.376Z,64.46
2019-04-01T01:49:03.820Z,64.88
2019-04-01T01:51:37.323Z,64.23
2019-04-01T01:54:10.325Z,64.69
2019-04-01T01:56:43.289Z,64.71
2019-04-01T01:59:16.223Z,65.39
2019-04-01T02:01:50.473Z,64.88
2019-04-01T02:04:22.330Z,64.40
2019-04-01T02:06:56.274Z,64.69
2019-04-01T02:09:28.308Z,64.52
2019-04-01T02:12:01.836Z,64.82
2019-04-01T02:14:35.200Z,64.69
2019-04-01T02:17:09.269Z,64.94
2019-04-01T02:19:43.734Z,65.01
2019-04-01T02:22:18.198Z,64.86
2019-04-01T02:24:53.670Z,65.28
2019-04-01T02:27:26.523Z,65.62
2019-04-01T02:29:58.395Z,65.89
2019-04-01T02:32:30.525Z,66.18
2019-04-01T02:35:04.796Z,65.44
2019-04-01T02:37:37.473Z,65.79
2019-04-01T02:40:11.347Z,66.21
2019-04-01T02:42:43.554Z,66.79
2019-04-01T02:45:17.361Z,65.99
2019-04-01T02:47:51.896Z,67.07
2019-04-01T02:50:24.463Z,66.41
2019-04-01T02:52:58.517Z,67.84
2019-04-01T02:55:30.595Z,67.87
2019-04-01T02:58:04.879Z,67.22
2019-04-01T03:00:37.363Z,67.33
2019-04-01T03:03:10.596Z,67.13
2019-04-01T03:05:43.631Z,68.58
2019-04-01T03:08:15.825Z,69.04
2019-04-01T03:10:49.513Z,67.92
2019-04-01T03:13:23.188Z,68.73
2019-04-01T03:15:55.716Z,68.20
2019-04-01T03:18:28.749Z,68.42
2019-04-01T03:21:01.769Z,68.52
2019-04-01T03:23:34.685Z,68.50
2019-04-01T03:26:07.626Z,68.90
2019-04-01T03:28:42.337Z,68.92
2019-04-01T03:31:13.732Z,69.01
2019-04-01T03:33:45.731Z,68.76
2019-04-01T03:36:20.375Z,69.18
2019-04-01T03:38:51.620Z,69.12
2019-04-01T03:41:26.858Z,69.19
2019-04-01T03:43:59.634Z,68.69
2019-04-01T03:46:30.942Z,68.21
2019-04-01T03:49:05.715Z,68.22
2019-04-01T03:51:37.778Z,67.86
2019-04-01T03:54:09.778Z,68.02
2019-04-01T03:56:42.879Z,67.08
2019-04-01T03:59:15.936Z,66.94
2019-04-01T04:01:49.323Z,67.56
2019-04-01T04:04:21.887Z,67.65
2019-04-01T04:06:54.668Z,67.69
2019-04-01T04:09:28.029Z,67.63
2019-04-01T04:12:01.391Z,66.81
2019-04-01T04:14:33.932Z,67.44
2019-04-01T04:17:05.213Z,67.85
2019-04-01T04:19:36.878Z,67.73
2019-04-01T04:22:09.892Z,67.30
2019-04-01T04:24:43.069Z,66.50
2019-04-01T04:27:15.963Z,66.49
2019-04-01T04:29:49.188Z,66.96
2019-04-01T04:32:21.945Z,66.94
2019-04-01T04:34:57.512Z,67.54
2019-04-01T04:37:28.955Z,68.04
2019-04-01T04:40:01.361Z,68.09
2019-04-01T04:42:35.707Z,67.93
2019-04-01T04:45:07.001Z,68.28
2019-04-01T04:47:40.107Z,68.59
2019-04-01T04:50:13.160Z,68.63
2019-04-01T04:52:48.405Z,68.38
2019-04-01T04:55:23.145Z,68.39
2019-04-01T04:57:55.020Z,68.13
2019-04-01T05:00:28.039Z,67.48
2019-04-01T05:03:01.017Z,67.99
2019-04-01T05:05:33.314Z,68.10
2019-04-01T05:08:06.094Z,68.46
2019-04-01T05:10:39.789Z,68.41
2019-04-01T05:13:13.171Z,68.48
2019-04-01T05:15:46.281Z,68.45
2019-04-01T05:18:20.085Z,68.85
2019-04-01T05:20:52.158Z,68.63
2019-04-01T05:23:26.750Z,68.08
2019-04-01T05:25:58.612Z,67.52
2019-04-01T05:28:31.166Z,67.03
2019-04-01T05:31:06.079Z,67.07
2019-04-01T05:33:54.851Z,66.99
2019-04-01T05:36:16.703Z,67.04
2019-04-01T05:38:49.322Z,66.94
2019-04-01T05:41:23.383Z,67.25
2019-04-01T05:43:55.587Z,67.33
2019-04-01T05:46:27.307Z,66.56
2019-04-01T05:49:01.511Z,65.70
2019-04-01T05:51:36.067Z,65.60
2019-04-01T05:54:09.039Z,65.83
2019-04-01T05:56:40.340Z,65.87
2019-04-01T05:59:14.486Z,65.77
2019-04-01T06:01:48.858Z,65.69
2019-04-01T06:04:20.262Z,65.47
2019-04-01T06:06:52.461Z,65.14
2019-04-01T06:09:24.320Z,64.91
2019-04-01T06:11:58.251Z,64.58
2019-04-01T06:14:30.517Z,64.23
2019-04-01T06:17:03.837Z,64.10
2019-04-01T06:19:37.394Z,63.59
2019-04-01T06:22:10.406Z,63.58
2019-04-01T06:24:43.467Z,63.95
2019-04-01T06:27:16.790Z,63.16
2019-04-01T06:29:49.699Z,63.94
2019-04-01T06:32:22.447Z,63.91
2019-04-01T06:34:55.442Z,63.88
2019-04-01T06:37:28.640Z,63.51
2019-04-01T06:40:01.245Z,64.10
2019-04-01T06:46:23.511Z,63.91
2019-04-01T06:48:56.466Z,63.43
2019-04-01T06:51:28.587Z,63.21
2019-04-01T06:54:01.537Z,63.12
2019-04-01T06:56:35.124Z,63.04
2019-04-01T06:59:07.507Z,62.50
2019-04-01T07:01:40.728Z,62.84
2019-04-01T07:04:13.695Z,62.21
2019-04-01T07:06:46.601Z,62.07
2019-04-01T07:09:22.103Z,61.69
2019-04-01T07:11:55.664Z,61.79
2019-04-01T07:14:29.614Z,61.45
2019-04-01T07:17:03.537Z,61.34
2019-04-01T07:19:39.235Z,60.66
2019-04-01T07:22:12.601Z,60.14
2019-04-01T07:24:48.334Z,59.37
2019-04-01T07:27:19.945Z,60.67
2019-04-01T07:29:53.071Z,59.91
2019-04-01T07:32:25.743Z,60.87
2019-04-01T07:34:58.704Z,61.07
2019-04-01T07:37:31.378Z,60.79
2019-04-01T07:40:05.800Z,60.10
2019-04-01T07:42:37.840Z,58.74
2019-04-01T07:45:11.120Z,59.55
2019-04-01T07:47:43.692Z,59.50
2019-04-01T07:50:17.125Z,59.01
2019-04-01T07:52:49.244Z,58.73
2019-04-01T07:55:22.815Z,58.16
2019-04-01T07:57:59.476Z,58.95
2019-04-01T08:00:31.148Z,57.71
2019-04-01T08:03:05.080Z,57.78
2019-04-01T08:05:37.997Z,57.88
2019-04-01T08:08:10.954Z,58.49
2019-04-01T08:10:43.919Z,56.25
2019-04-01T08:13:16.029Z,56.77
2019-04-01T08:15:50.061Z,56.67
2019-04-01T08:18:23.910Z,57.24
2019-04-01T08:20:56.984Z,57.33
2019-04-01T08:23:29.196Z,56.76
2019-04-01T08:26:02.013Z,56.66
2019-04-01T08:28:35.074Z,56.05
2019-04-01T08:31:08.769Z,56.18
2019-04-01T08:33:42.120Z,56.09
2019-04-01T08:36:15.868Z,56.03
2019-04-01T08:38:50.175Z,56.35
2019-04-01T08:41:23.158Z,54.43
2019-04-01T08:43:56.310Z,54.87
2019-04-01T08:46:27.659Z,54.92
2019-04-01T08:49:00.804Z,54.75
2019-04-01T08:51:32.128Z,54.48
2019-04-01T08:54:03.480Z,55.36
2019-04-01T08:56:38.093Z,55.08
2019-04-01T08:59:08.343Z,54.52
2019-04-01T09:01:41.010Z,55.22
2019-04-01T09:04:14.600Z,54.96
2019-04-01T09:06:47.218Z,53.49
2019-04-01T09:09:19.171Z,53.08
2019-04-01T09:11:52.196Z,53.71
2019-04-01T09:14:25.160Z,52.82
2019-04-01T09:16:58.120Z,52.08
2019-04-01T09:19:30.489Z,53.39
2019-04-01T09:22:02.856Z,53.12
2019-04-01T09:24:35.341Z,51.45
2019-04-01T09:27:08.264Z,52.54
2019-04-01T09:29:41.487Z,53.24
2019-04-01T09:32:13.783Z,52.46
2019-04-01T09:34:46.409Z,52.14
2019-04-01T09:37:19.200Z,51.46
2019-04-01T09:39:52.293Z,51.19
2019-04-01T09:42:25.482Z,50.59
2019-04-01T09:44:58.795Z,50.41
2019-04-01T09:47:30.484Z,50.83
2019-04-01T09:50:04.504Z,50.79
2019-04-01T09:52:37.358Z,51.12
2019-04-01T09:55:10.530Z,49.41
2019-04-01T09:57:46.205Z,49.65
2019-04-01T10:00:19.774Z,50.22
2019-04-01T10:02:54.153Z,48.29
2019-04-01T10:05:28.045Z,48.58
2019-04-01T10:07:59.510Z,48.18
2019-04-01T10:10:31.506Z,47.40
2019-04-01T10:13:04.651Z,47.40
2019-04-01T10:15:37.653Z,46.42
2019-04-01T10:18:10.601Z,46.39
2019-04-01T10:20:43.467Z,46.51
2019-04-01T10:23:17.515Z,46.04
2019-04-01T10:25:51.460Z,47.46
2019-04-01T10:28:25.788Z,45.79
2019-04-01T10:30:59.810Z,45.04
2019-04-01T10:33:31.492Z,45.25
2019-04-01T10:36:04.600Z,45.87
2019-04-01T10:38:37.674Z,45.10
2019-04-01T10:41:10.665Z,45.55
2019-04-01T10:43:43.785Z,43.86
2019-04-01T10:46:15.607Z,42.96
2019-04-01T10:48:49.603Z,43.33
2019-04-01T10:51:22.653Z,44.16
2019-04-01T10:53:55.718Z,42.04
2019-04-01T10:56:27.940Z,42.67
2019-04-01T10:59:01.802Z,44.06
2019-04-01T11:01:34.668Z,43.62
2019-04-01T11:04:07.902Z,43.14
2019-04-01T11:06:40.770Z,42.58
2019-04-01T11:09:12.820Z,42.66
2019-04-01T11:11:46.789Z,42.52
2019-04-01T11:14:19.911Z,42.68
2019-04-01T11:16:52.879Z,42.71
2019-04-01T11:19:25.731Z,42.62
2019-04-01T11:21:59.048Z,41.97
2019-04-01T11:24:31.425Z,42.57
2019-04-01T11:27:05.604Z,42.08
2019-04-01T11:29:37.873Z,43.16
2019-04-01T11:32:13.317Z,42.54
2019-04-01T11:34:43.756Z,42.87
2019-04-01T11:37:15.904Z,41.77
2019-04-01T11:39:51.537Z,41.72
2019-04-01T11:42:23.163Z,41.40
2019-04-01T11:44:57.686Z,41.49
2019-04-01T11:47:29.853Z,41.41
2019-04-01T11:50:04.809Z,41.56
2019-04-01T11:52:38.225Z,41.48
2019-04-01T11:55:10.264Z,42.10
2019-04-01T11:57:44.078Z,42.08
2019-04-01T12:00:18.842Z,41.49
2019-04-01T12:02:52.789Z,41.43
2019-04-01T12:05:24.954Z,40.04
2019-04-01T12:08:00.616Z,40.67
2019-04-01T12:10:31.970Z,41.36
2019-04-01T12:13:04.081Z,41.56
2019-04-01T12:15:37.955Z,41.20
2019-04-01T12:18:10.010Z,40.84
2019-04-01T12:20:44.267Z,40.94
2019-04-01T12:23:16.091Z,41.16
2019-04-01T12:25:49.060Z,39.67
2019-04-01T12:28:21.260Z,39.37
2019-04-01T12:30:56.668Z,40.22
2019-04-01T12:33:28.311Z,40.11
2019-04-01T12:36:01.228Z,39.89
2019-04-01T12:38:36.839Z,38.90
2019-04-01T12:41:08.193Z,39.52
2019-04-01T12:43:41.177Z,39.89
2019-04-01T12:46:15.060Z,39.55
2019-04-01T12:48:47.244Z,38.44
2019-04-01T12:51:19.326Z,38.61
2019-04-01T12:53:53.239Z,36.96
2019-04-01T12:56:27.725Z,38.66
2019-04-01T12:58:59.334Z,39.14
2019-04-01T13:01:31.561Z,38.47
2019-04-01T13:04:04.466Z,38.12
2019-04-01T13:06:38.133Z,38.16
2019-04-01T13:09:11.768Z,38.24
2019-04-01T13:11:44.477Z,38.02
2019-04-01T13:14:17.213Z,38.20
2019-04-01T13:16:51.892Z,39.21
2019-04-01T13:19:24.308Z,37.99
2019-04-01T13:21:56.595Z,38.32
2019-04-01T13:24:30.563Z,37.52
2019-04-01T13:27:03.407Z,37.69
2019-04-01T13:29:35.266Z,36.79
2019-04-01T13:32:08.507Z,37.79
2019-04-01T13:34:41.269Z,37.93
2019-04-01T13:37:15.292Z,38.56
2019-04-01T13:39:49.185Z,36.17
2019-04-01T13:42:20.406Z,36.84
2019-04-01T13:44:53.289Z,37.82
2019-04-01T13:47:26.347Z,37.48
2019-04-01T13:50:03.509Z,37.32
2019-04-01T13:52:37.177Z,36.55
2019-04-01T13:55:11.291Z,36.64
2019-04-01T13:57:44.422Z,36.41
2019-04-01T14:00:17.437Z,36.02
2019-04-01T14:02:53.177Z,35.82
2019-04-01T14:05:27.513Z,36.00
2019-04-01T14:08:00.924Z,36.03
2019-04-01T14:10:33.984Z,35.51
2019-04-01T14:13:06.668Z,35.03
2019-04-01T14:15:38.727Z,36.18
2019-04-01T14:18:12.776Z,36.01
2019-04-01T14:20:47.181Z,35.49
2019-04-01T14:23:23.220Z,35.29
2019-04-01T14:25:55.541Z,35.14
2019-04-01T14:28:28.590Z,36.21
2019-04-01T14:31:01.771Z,36.18
2019-04-01T14:33:35.790Z,36.10
2019-04-01T14:36:10.347Z,35.19
2019-04-01T14:38:44.737Z,36.06
2019-04-01T14:41:16.707Z,36.44
2019-04-01T14:43:50.684Z,36.97
2019-04-01T14:46:23.651Z,36.34
2019-04-01T14:48:55.619Z,36.93
2019-04-01T14:51:28.781Z,36.54
2019-04-01T14:54:01.695Z,36.84
2019-04-01T14:56:34.790Z,37.34
2019-04-01T14:59:07.932Z,36.53
2019-04-01T15:01:40.819Z,36.62
2019-04-01T15:04:13.755Z,36.82
2019-04-01T15:06:46.809Z,36.58
2019-04-01T15:09:23.462Z,36.42
2019-04-01T15:11:57.196Z,36.66
2019-04-01T15:14:28.968Z,36.51
2019-04-01T15:17:02.581Z,36.51
2019-04-01T15:19:34.804Z,36.74
2019-04-01T15:22:07.878Z,37.26
2019-04-01T15:24:41.772Z,37.38
2019-04-01T15:27:17.450Z,37.11
2019-04-01T15:29:51.762Z,37.37
2019-04-01T15:32:23.389Z,37.42
2019-04-01T15:34:56.120Z,37.03
2019-04-01T15:37:32.034Z,37.06
2019-04-01T15:40:03.927Z,37.33
2019-04-01T15:42:37.873Z,37.53
2019-04-01T15:45:11.169Z,37.23
2019-04-01T15:47:44.021Z,37.21
2019-04-01T15:50:28.343Z,36.91
2019-04-01T15:52:52.901Z,36.92
2019-04-01T15:55:25.877Z,37.26
2019-04-01T15:57:59.095Z,37.16
2019-04-01T16:00:32.176Z,37.19
2019-04-01T16:03:05.092Z,36.74
2019-04-01T16:05:38.071Z,36.87
2019-04-01T16:08:11.773Z,36.98
2019-04-01T16:10:45.683Z,36.47
2019-04-01T16:13:19.063Z,36.38
2019-04-01T16:15:53.011Z,36.48
2019-04-01T16:18:24.336Z,36.61
2019-04-01T16:20:59.288Z,36.39
2019-04-01T16:23:28.934Z,36.08
2019-04-01T16:26:02.127Z,36.51
2019-04-01T16:28:33.387Z,36.42
2019-04-01T16:31:05.198Z,36.20
2019-04-01T16:33:38.251Z,35.96
2019-04-01T16:36:11.192Z,36.29
2019-04-01T16:38:44.172Z,36.11
2019-04-01T16:41:17.221Z,36.05
2019-04-01T16:43:50.245Z,35.57
2019-04-01T16:46:23.251Z,35.61
2019-04-01T16:48:56.267Z,35.94
2019-04-01T16:51:31.105Z,36.41
2019-04-01T16:54:04.230Z,36.72
2019-04-01T16:56:38.302Z,37.43
2019-04-01T16:59:11.249Z,37.25
2019-04-01T17:01:44.502Z,37.82
2019-04-01T17:04:17.496Z,37.92
2019-04-01T17:06:50.355Z,38.55
2019-04-01T17:09:23.318Z,38.67
2019-04-01T17:11:59.039Z,38.79
2019-04-01T17:14:31.929Z,38.95
2019-04-01T17:17:05.804Z,39.20
2019-04-01T17:19:39.176Z,39.68
2019-04-01T17:22:11.707Z,39.39
2019-04-01T17:24:45.943Z,39.09
2019-04-01T17:27:20.322Z,39.24
2019-04-01T17:29:53.534Z,39.51
2019-04-01T17:32:27.176Z,39.33
2019-04-01T17:35:02.581Z,40.29
2019-04-01T17:37:35.659Z,40.17
2019-04-01T17:40:10.279Z,39.51
2019-04-01T17:42:45.462Z,40.19
2019-04-01T17:45:41.834Z,39.64
2019-04-01T17:48:14.706Z,40.30
2019-04-01T17:50:48.511Z,40.63
2019-04-01T17:53:21.287Z,40.42
2019-04-01T17:55:53.546Z,40.09
2019-04-01T17:58:26.502Z,40.33
2019-04-01T18:01:00.483Z,39.98
2019-04-01T18:03:36.073Z,40.50
2019-04-01T18:06:11.378Z,44.18
2019-04-01T18:08:45.666Z,44.27
2019-04-01T18:11:18.706Z,44.41
2019-04-01T18:13:50.994Z,44.90
2019-04-01T18:16:26.214Z,44.61
2019-04-01T18:19:01.371Z,45.89
2019-04-01T18:21:32.656Z,47.33
2019-04-01T18:24:06.027Z,46.01
2019-04-01T18:26:39.516Z,44.43
2019-04-01T18:29:11.666Z,43.87
2019-04-01T18:31:44.700Z,43.07
2019-04-01T18:34:17.840Z,45.54
2019-04-01T18:36:51.975Z,47.34
2019-04-01T18:39:24.717Z,47.61
2019-04-01T18:41:56.557Z,47.71
2019-04-01T18:44:28.211Z,47.49
2019-04-01T18:47:03.688Z,49.39
2019-04-01T18:49:36.157Z,46.98
2019-04-01T18:52:09.091Z,47.45
2019-04-01T18:54:42.870Z,47.63
2019-04-01T18:57:14.763Z,49.42
2019-04-01T18:59:47.817Z,50.22
2019-04-01T19:02:22.372Z,49.67
2019-04-01T19:04:53.769Z,50.37
2019-04-01T19:07:25.734Z,48.82
2019-04-01T19:10:06.334Z,49.68
2019-04-01T19:12:36.542Z,50.20
2019-04-01T19:15:09.964Z,50.05
2019-04-01T19:17:43.727Z,51.10
2019-04-01T19:20:17.877Z,50.14
2019-04-01T19:22:52.317Z,50.28
2019-04-01T19:25:25.885Z,50.43
2019-04-01T19:27:59.373Z,50.16
2019-04-01T19:30:32.063Z,47.09
2019-04-01T19:33:06.764Z,46.61
2019-04-01T19:35:41.041Z,47.33
2019-04-01T19:38:15.188Z,49.63
2019-04-01T19:40:48.868Z,51.07
2019-04-01T19:43:27.973Z,50.58
2019-04-01T19:46:00.028Z,50.85
2019-04-01T19:48:32.289Z,50.90
2019-04-01T19:51:06.742Z,50.40
2019-04-01T19:53:40.456Z,52.00
2019-04-01T19:56:14.243Z,51.67
2019-04-01T19:58:47.345Z,50.69
2019-04-01T20:01:24.993Z,51.56
2019-04-01T20:03:59.091Z,51.15
2019-04-01T20:06:32.310Z,50.30
2019-04-01T20:09:07.896Z,49.95
2019-04-01T20:11:39.228Z,49.12
2019-04-01T20:14:12.375Z,48.61
2019-04-01T20:16:47.750Z,51.05
2019-04-01T20:19:20.245Z,50.56
2019-04-01T20:21:53.476Z,49.79
2019-04-01T20:24:25.986Z,49.95
2019-04-01T20:27:00.913Z,50.30
2019-04-01T20:29:33.335Z,50.56
2019-04-01T20:32:17.146Z,48.89
2019-04-01T20:34:56.479Z,50.73
2019-04-01T20:37:19.862Z,49.86
2019-04-01T20:39:51.272Z,50.27
2019-04-01T20:42:24.293Z,49.58
2019-04-01T20:44:56.221Z,49.31
2019-04-01T20:47:33.015Z,49.09
2019-04-01T20:50:06.529Z,49.71
2019-04-01T20:52:38.366Z,49.97
2019-04-01T20:55:13.262Z,49.43
2019-04-01T20:57:46.076Z,51.21
2019-04-01T21:00:22.346Z,51.20
2019-04-01T21:02:57.841Z,50.57
2019-04-01T21:05:31.800Z,50.31
2019-04-01T21:08:05.642Z,50.01
2019-04-01T21:10:40.233Z,50.11
2019-04-01T21:13:12.555Z,49.85
2019-04-01T21:15:46.377Z,49.30
2019-04-01T21:18:22.517Z,49.35
2019-04-01T21:20:55.377Z,49.52
2019-04-01T21:23:26.621Z,49.02
2019-04-01T21:25:59.569Z,49.88
2019-04-01T21:28:32.088Z,49.63
2019-04-01T21:31:05.376Z,49.77
2019-04-01T21:33:38.889Z,49.71
2019-04-01T21:36:12.450Z,50.74
2019-04-01T21:38:46.181Z,49.79
2019-04-01T21:41:20.499Z,49.14
2019-04-01T21:43:53.321Z,49.64
2019-04-01T21:46:26.565Z,50.49
2019-04-01T21:48:59.565Z,49.90
2019-04-01T21:51:33.027Z,51.48
2019-04-01T21:54:05.628Z,51.20
2019-04-01T21:56:39.428Z,50.72
2019-04-01T21:59:12.718Z,52.61
2019-04-01T22:01:46.329Z,51.66
2019-04-01T22:04:20.616Z,52.53
2019-04-01T22:06:53.632Z,51.17
2019-04-01T22:09:26.223Z,51.19
2019-04-01T22:11:59.634Z,51.08
2019-04-01T22:14:31.869Z,50.84
2019-04-01T22:17:05.641Z,51.24
2019-04-01T22:19:37.259Z,51.12
2019-04-01T22:22:09.029Z,50.62
2019-04-01T22:24:41.865Z,51.51
2019-04-01T22:27:13.655Z,50.89
2019-04-01T22:29:48.831Z,50.95
2019-04-01T22:32:22.537Z,50.17
2019-04-01T22:34:53.773Z,50.72
2019-04-01T22:37:27.319Z,51.18
2019-04-01T22:40:00.240Z,50.88
2019-04-01T22:42:32.632Z,50.67
2019-04-01T22:45:07.512Z,50.98
2019-04-01T22:47:38.694Z,51.58
2019-04-01T22:50:12.624Z,52.28
2019-04-01T22:52:48.162Z,51.40
2019-04-01T22:55:20.880Z,50.66
2019-04-01T22:57:53.946Z,51.07
2019-04-01T23:00:26.801Z,51.42
2019-04-01T23:03:00.025Z,51.76
2019-04-01T23:05:32.028Z,51.56
2019-04-01T23:08:05.984Z,52.75
2019-04-01T23:10:38.866Z,52.87
2019-04-01T23:13:11.942Z,53.10
2019-04-01T23:15:44.908Z,53.00
2019-04-01T23:18:17.913Z,53.07
2019-04-01T23:20:50.949Z,53.23
2019-04-01T23:23:24.984Z,52.92
2019-04-01T23:25:57.007Z,53.04
2019-04-01T23:28:29.963Z,52.03
2019-04-01T23:31:02.980Z,52.85
2019-04-01T23:33:35.992Z,53.19
2019-04-01T23:36:09.203Z,53.24
2019-04-01T23:38:41.926Z,53.17
2019-04-01T23:41:13.902Z,52.80
2019-04-01T23:43:47.231Z,52.56
2019-04-01T23:46:21.122Z,52.65
2019-04-01T23:48:55.205Z,52.53
2019-04-01T23:51:29.177Z,52.94
2019-04-01T23:54:02.281Z,53.59
2019-04-01T23:56:36.105Z,53.35
2019-04-01T23:59:09.975Z,53.46
